sensor_id;sensor_type;location;lat;lon;timestamp;P1;durP1;ratioP1;P2;durP2;ratioP2
2211;SDS011;48849;48.758;9.158;2022-09-04T00:02:30;4.93;;;3.77;;
2211;SDS011;48849;48.758;9.158;2022-09-04T00:05:11;3.73;;;3.43;;
2211;SDS011;48849;48.758;9.158;2022-09-04T00:07:44;3.70;;;3.30;;
2211;SDS011;48849;48.758;9.158;2022-09-04T00:10:22;4.20;;;3.80;;
2211;SDS011;48849;48.758;9.158;2022-09-04T00:12:57;4.10;;;3.70;;
2211;SDS011;48849;48.758;9.158;2022-09-04T00:15:31;4.00;;;3.67;;
2211;SDS011;48849;48.758;9.158;2022-09-04T00:18:02;4.10;;;3.53;;
2211;SDS011;48849;48.758;9.158;2022-09-04T00:20:33;4.47;;;4.07;;
2211;SDS011;48849;48.758;9.158;2022-09-04T00:23:07;4.43;;;3.63;;
2211;SDS011;48849;48.758;9.158;2022-09-04T00:25:45;5.90;;;3.80;;
2211;SDS011;48849;48.758;9.158;2022-09-04T00:28:18;4.03;;;3.63;;
2211;SDS011;48849;48.758;9.158;2022-09-04T00:30:55;4.53;;;4.13;;
2211;SDS011;48849;48.758;9.158;2022-09-04T00:33:34;4.83;;;4.37;;
2211;SDS011;48849;48.758;9.158;2022-09-04T00:36:05;5.30;;;3.70;;
2211;SDS011;48849;48.758;9.158;2022-09-04T00:38:34;5.07;;;4.57;;
2211;SDS011;48849;48.758;9.158;2022-09-04T00:41:10;4.10;;;3.70;;
2211;SDS011;48849;48.758;9.158;2022-09-04T00:46:43;4.40;;;4.00;;
2211;SDS011;48849;48.758;9.158;2022-09-04T00:52:27;5.57;;;5.07;;
2211;SDS011;48849;48.758;9.158;2022-09-04T00:55:08;8.47;;;5.30;;
2211;SDS011;48849;48.758;9.158;2022-09-04T00:57:53;5.70;;;5.20;;
2211;SDS011;48849;48.758;9.158;2022-09-04T01:00:33;4.87;;;4.37;;
2211;SDS011;48849;48.758;9.158;2022-09-04T01:03:16;7.37;;;5.20;;
2211;SDS011;48849;48.758;9.158;2022-09-04T01:06:00;7.07;;;4.70;;
2211;SDS011;48849;48.758;9.158;2022-09-04T01:08:41;6.20;;;5.00;;
2211;SDS011;48849;48.758;9.158;2022-09-04T01:11:26;6.20;;;5.20;;
2211;SDS011;48849;48.758;9.158;2022-09-04T01:14:03;6.37;;;5.00;;
2211;SDS011;48849;48.758;9.158;2022-09-04T01:16:38;7.17;;;5.47;;
2211;SDS011;48849;48.758;9.158;2022-09-04T01:19:13;5.87;;;4.30;;
2211;SDS011;48849;48.758;9.158;2022-09-04T01:21:56;5.03;;;4.27;;
2211;SDS011;48849;48.758;9.158;2022-09-04T01:24:37;6.17;;;4.30;;
2211;SDS011;48849;48.758;9.158;2022-09-04T01:27:21;4.60;;;4.20;;
2211;SDS011;48849;48.758;9.158;2022-09-04T01:29:55;5.10;;;4.60;;
2211;SDS011;48849;48.758;9.158;2022-09-04T01:32:30;5.17;;;3.83;;
2211;SDS011;48849;48.758;9.158;2022-09-04T01:35:07;5.30;;;4.20;;
2211;SDS011;48849;48.758;9.158;2022-09-04T01:37:48;4.93;;;4.47;;
2211;SDS011;48849;48.758;9.158;2022-09-04T01:40:29;6.73;;;4.30;;
2211;SDS011;48849;48.758;9.158;2022-09-04T01:43:04;4.17;;;3.77;;
2211;SDS011;48849;48.758;9.158;2022-09-04T01:45:40;5.87;;;4.47;;
2211;SDS011;48849;48.758;9.158;2022-09-04T01:48:19;5.27;;;3.97;;
2211;SDS011;48849;48.758;9.158;2022-09-04T01:50:52;4.60;;;4.20;;
2211;SDS011;48849;48.758;9.158;2022-09-04T01:53:26;4.33;;;3.93;;
2211;SDS011;48849;48.758;9.158;2022-09-04T01:55:57;5.67;;;4.60;;
2211;SDS011;48849;48.758;9.158;2022-09-04T01:58:35;7.53;;;4.37;;
2211;SDS011;48849;48.758;9.158;2022-09-04T02:01:08;5.40;;;5.00;;
2211;SDS011;48849;48.758;9.158;2022-09-04T02:03:44;5.07;;;4.00;;
2211;SDS011;48849;48.758;9.158;2022-09-04T02:06:20;5.00;;;4.57;;
2211;SDS011;48849;48.758;9.158;2022-09-04T02:08:56;5.13;;;4.30;;
2211;SDS011;48849;48.758;9.158;2022-09-04T02:11:43;6.13;;;4.93;;
2211;SDS011;48849;48.758;9.158;2022-09-04T02:14:22;5.90;;;4.60;;
2211;SDS011;48849;48.758;9.158;2022-09-04T02:17:03;4.47;;;4.00;;
2211;SDS011;48849;48.758;9.158;2022-09-04T02:19:36;5.10;;;4.60;;
2211;SDS011;48849;48.758;9.158;2022-09-04T02:22:14;4.27;;;3.87;;
2211;SDS011;48849;48.758;9.158;2022-09-04T02:24:50;4.60;;;4.20;;
2211;SDS011;48849;48.758;9.158;2022-09-04T02:27:22;4.33;;;3.93;;
2211;SDS011;48849;48.758;9.158;2022-09-04T02:29:57;5.40;;;3.70;;
2211;SDS011;48849;48.758;9.158;2022-09-04T02:32:30;4.90;;;4.47;;
2211;SDS011;48849;48.758;9.158;2022-09-04T02:35:02;4.47;;;4.07;;
2211;SDS011;48849;48.758;9.158;2022-09-04T02:37:36;5.50;;;4.27;;
2211;SDS011;48849;48.758;9.158;2022-09-04T02:40:15;6.50;;;4.07;;
2211;SDS011;48849;48.758;9.158;2022-09-04T02:42:49;4.67;;;3.90;;
2211;SDS011;48849;48.758;9.158;2022-09-04T02:45:31;4.90;;;4.40;;
2211;SDS011;48849;48.758;9.158;2022-09-04T02:48:04;5.33;;;4.00;;
2211;SDS011;48849;48.758;9.158;2022-09-04T02:50:40;5.13;;;4.03;;
2211;SDS011;48849;48.758;9.158;2022-09-04T02:53:23;4.20;;;3.80;;
2211;SDS011;48849;48.758;9.158;2022-09-04T02:56:00;5.53;;;4.10;;
2211;SDS011;48849;48.758;9.158;2022-09-04T02:58:40;4.80;;;4.30;;
2211;SDS011;48849;48.758;9.158;2022-09-04T03:01:17;4.07;;;3.67;;
2211;SDS011;48849;48.758;9.158;2022-09-04T03:03:50;4.83;;;4.00;;
2211;SDS011;48849;48.758;9.158;2022-09-04T03:06:28;3.77;;;3.47;;
2211;SDS011;48849;48.758;9.158;2022-09-04T03:09:07;4.00;;;3.60;;
2211;SDS011;48849;48.758;9.158;2022-09-04T03:11:39;4.07;;;3.67;;
2211;SDS011;48849;48.758;9.158;2022-09-04T03:14:11;4.67;;;4.10;;
2211;SDS011;48849;48.758;9.158;2022-09-04T03:16:50;3.93;;;3.63;;
2211;SDS011;48849;48.758;9.158;2022-09-04T03:19:27;4.10;;;3.53;;
2211;SDS011;48849;48.758;9.158;2022-09-04T03:22:00;4.70;;;4.20;;
2211;SDS011;48849;48.758;9.158;2022-09-04T03:24:33;4.50;;;3.50;;
2211;SDS011;48849;48.758;9.158;2022-09-04T03:27:09;3.70;;;3.40;;
2211;SDS011;48849;48.758;9.158;2022-09-04T03:29:40;4.00;;;3.70;;
2211;SDS011;48849;48.758;9.158;2022-09-04T03:32:18;6.03;;;3.10;;
2211;SDS011;48849;48.758;9.158;2022-09-04T03:34:50;3.60;;;3.30;;
2211;SDS011;48849;48.758;9.158;2022-09-04T03:37:29;3.80;;;3.50;;
2211;SDS011;48849;48.758;9.158;2022-09-04T03:40:04;3.77;;;3.37;;
2211;SDS011;48849;48.758;9.158;2022-09-04T03:42:46;4.07;;;3.77;;
2211;SDS011;48849;48.758;9.158;2022-09-04T03:45:28;3.90;;;3.50;;
2211;SDS011;48849;48.758;9.158;2022-09-04T03:48:08;5.87;;;3.57;;
2211;SDS011;48849;48.758;9.158;2022-09-04T03:50:47;5.73;;;3.30;;
2211;SDS011;48849;48.758;9.158;2022-09-04T03:53:25;3.73;;;3.43;;
2211;SDS011;48849;48.758;9.158;2022-09-04T03:56:04;4.73;;;4.27;;
2211;SDS011;48849;48.758;9.158;2022-09-04T03:58:51;3.83;;;3.53;;
2211;SDS011;48849;48.758;9.158;2022-09-04T04:01:32;6.60;;;3.53;;
2211;SDS011;48849;48.758;9.158;2022-09-04T04:04:17;3.70;;;3.30;;
2211;SDS011;48849;48.758;9.158;2022-09-04T04:07:07;4.33;;;3.17;;
2211;SDS011;48849;48.758;9.158;2022-09-04T04:09:49;5.10;;;3.30;;
2211;SDS011;48849;48.758;9.158;2022-09-04T04:15:26;3.63;;;3.33;;
2211;SDS011;48849;48.758;9.158;2022-09-04T04:18:06;7.10;;;3.80;;
2211;SDS011;48849;48.758;9.158;2022-09-04T04:20:58;4.00;;;3.70;;
2211;SDS011;48849;48.758;9.158;2022-09-04T04:23:38;6.10;;;4.17;;
2211;SDS011;48849;48.758;9.158;2022-09-04T04:26:23;3.63;;;3.33;;
2211;SDS011;48849;48.758;9.158;2022-09-04T04:29:07;4.00;;;3.20;;
2211;SDS011;48849;48.758;9.158;2022-09-04T04:31:53;4.40;;;3.80;;
2211;SDS011;48849;48.758;9.158;2022-09-04T04:34:39;4.50;;;3.73;;
2211;SDS011;48849;48.758;9.158;2022-09-04T04:37:23;4.27;;;3.77;;
2211;SDS011;48849;48.758;9.158;2022-09-04T04:39:59;3.90;;;3.50;;
2211;SDS011;48849;48.758;9.158;2022-09-04T04:42:31;5.30;;;4.00;;
2211;SDS011;48849;48.758;9.158;2022-09-04T04:45:17;4.00;;;3.70;;
2211;SDS011;48849;48.758;9.158;2022-09-04T04:48:15;4.30;;;3.65;;
2211;SDS011;48849;48.758;9.158;2022-09-04T04:50:56;3.63;;;3.33;;
2211;SDS011;48849;48.758;9.158;2022-09-04T04:53:35;3.80;;;3.47;;
2211;SDS011;48849;48.758;9.158;2022-09-04T04:56:10;3.57;;;3.30;;
2211;SDS011;48849;48.758;9.158;2022-09-04T04:58:49;4.00;;;3.60;;
2211;SDS011;48849;48.758;9.158;2022-09-04T05:01:30;6.07;;;3.60;;
2211;SDS011;48849;48.758;9.158;2022-09-04T05:04:08;4.13;;;3.70;;
2211;SDS011;48849;48.758;9.158;2022-09-04T05:06:43;3.90;;;3.50;;
2211;SDS011;48849;48.758;9.158;2022-09-04T05:09:20;4.37;;;3.97;;
2211;SDS011;48849;48.758;9.158;2022-09-04T05:11:55;5.37;;;3.50;;
2211;SDS011;48849;48.758;9.158;2022-09-04T05:17:16;4.60;;;4.20;;
2211;SDS011;48849;48.758;9.158;2022-09-04T05:19:51;5.50;;;3.80;;
2211;SDS011;48849;48.758;9.158;2022-09-04T05:22:35;4.17;;;3.77;;
2211;SDS011;48849;48.758;9.158;2022-09-04T05:25:10;5.03;;;3.85;;
2211;SDS011;48849;48.758;9.158;2022-09-04T05:27:43;4.30;;;3.47;;
2211;SDS011;48849;48.758;9.158;2022-09-04T05:30:22;4.43;;;3.75;;
2211;SDS011;48849;48.758;9.158;2022-09-04T05:33:03;4.33;;;3.93;;
2211;SDS011;48849;48.758;9.158;2022-09-04T05:35:37;3.70;;;3.40;;
2211;SDS011;48849;48.758;9.158;2022-09-04T05:38:12;4.63;;;3.85;;
2211;SDS011;48849;48.758;9.158;2022-09-04T05:40:51;6.70;;;4.00;;
2211;SDS011;48849;48.758;9.158;2022-09-04T05:43:31;5.70;;;3.80;;
2211;SDS011;48849;48.758;9.158;2022-09-04T05:46:10;4.10;;;3.70;;
2211;SDS011;48849;48.758;9.158;2022-09-04T05:48:44;4.20;;;3.80;;
2211;SDS011;48849;48.758;9.158;2022-09-04T05:51:27;4.80;;;3.70;;
2211;SDS011;48849;48.758;9.158;2022-09-04T05:57:09;3.83;;;3.53;;
2211;SDS011;48849;48.758;9.158;2022-09-04T06:02:42;4.23;;;3.60;;
2211;SDS011;48849;48.758;9.158;2022-09-04T06:05:36;3.97;;;3.67;;
2211;SDS011;48849;48.758;9.158;2022-09-04T06:08:16;6.07;;;3.43;;
2211;SDS011;48849;48.758;9.158;2022-09-04T06:10:54;4.37;;;3.93;;
2211;SDS011;48849;48.758;9.158;2022-09-04T06:13:34;5.73;;;5.10;;
2211;SDS011;48849;48.758;9.158;2022-09-04T06:16:19;4.70;;;4.27;;
2211;SDS011;48849;48.758;9.158;2022-09-04T06:19:03;5.60;;;4.00;;
2211;SDS011;48849;48.758;9.158;2022-09-04T06:24:56;5.00;;;4.60;;
2211;SDS011;48849;48.758;9.158;2022-09-04T06:27:58;4.43;;;4.03;;
2211;SDS011;48849;48.758;9.158;2022-09-04T06:30:44;4.40;;;4.00;;
2211;SDS011;48849;48.758;9.158;2022-09-04T06:36:23;4.20;;;3.90;;
2211;SDS011;48849;48.758;9.158;2022-09-04T06:39:03;4.37;;;4.03;;
2211;SDS011;48849;48.758;9.158;2022-09-04T06:42:03;4.30;;;4.00;;
2211;SDS011;48849;48.758;9.158;2022-09-04T06:44:45;6.40;;;4.13;;
2211;SDS011;48849;48.758;9.158;2022-09-04T06:47:26;4.60;;;4.20;;
2211;SDS011;48849;48.758;9.158;2022-09-04T06:50:12;4.57;;;4.13;;
2211;SDS011;48849;48.758;9.158;2022-09-04T06:52:46;6.73;;;5.07;;
2211;SDS011;48849;48.758;9.158;2022-09-04T06:55:27;4.40;;;4.10;;
2211;SDS011;48849;48.758;9.158;2022-09-04T06:58:02;5.80;;;4.07;;
2211;SDS011;48849;48.758;9.158;2022-09-04T07:00:42;6.97;;;4.53;;
2211;SDS011;48849;48.758;9.158;2022-09-04T07:03:31;4.53;;;4.13;;
2211;SDS011;48849;48.758;9.158;2022-09-04T07:06:09;6.40;;;4.73;;
2211;SDS011;48849;48.758;9.158;2022-09-04T07:08:45;4.80;;;4.40;;
2211;SDS011;48849;48.758;9.158;2022-09-04T07:11:23;8.63;;;5.10;;
2211;SDS011;48849;48.758;9.158;2022-09-04T07:14:06;4.70;;;4.30;;
2211;SDS011;48849;48.758;9.158;2022-09-04T07:16:56;5.00;;;4.60;;
2211;SDS011;48849;48.758;9.158;2022-09-04T07:22:40;4.27;;;3.87;;
2211;SDS011;48849;48.758;9.158;2022-09-04T07:25:16;5.23;;;4.83;;
2211;SDS011;48849;48.758;9.158;2022-09-04T07:27:51;5.30;;;4.40;;
2211;SDS011;48849;48.758;9.158;2022-09-04T07:30:27;5.03;;;4.60;;
2211;SDS011;48849;48.758;9.158;2022-09-04T07:33:00;6.33;;;5.20;;
2211;SDS011;48849;48.758;9.158;2022-09-04T07:35:34;6.10;;;4.97;;
2211;SDS011;48849;48.758;9.158;2022-09-04T07:38:07;5.20;;;4.63;;
2211;SDS011;48849;48.758;9.158;2022-09-04T07:40:42;4.80;;;4.40;;
2211;SDS011;48849;48.758;9.158;2022-09-04T07:43:16;5.03;;;4.53;;
2211;SDS011;48849;48.758;9.158;2022-09-04T07:45:47;5.77;;;5.10;;
2211;SDS011;48849;48.758;9.158;2022-09-04T07:48:25;6.70;;;4.97;;
2211;SDS011;48849;48.758;9.158;2022-09-04T07:50:57;5.23;;;4.63;;
2211;SDS011;48849;48.758;9.158;2022-09-04T07:53:48;5.17;;;4.67;;
2211;SDS011;48849;48.758;9.158;2022-09-04T07:56:24;5.20;;;4.70;;
2211;SDS011;48849;48.758;9.158;2022-09-04T07:59:08;5.47;;;4.60;;
2211;SDS011;48849;48.758;9.158;2022-09-04T08:01:59;5.90;;;4.77;;
2211;SDS011;48849;48.758;9.158;2022-09-04T08:08:02;5.00;;;4.50;;
2211;SDS011;48849;48.758;9.158;2022-09-04T08:11:02;6.20;;;4.90;;
2211;SDS011;48849;48.758;9.158;2022-09-04T08:13:44;4.70;;;4.30;;
2211;SDS011;48849;48.758;9.158;2022-09-04T08:16:30;4.73;;;4.33;;
2211;SDS011;48849;48.758;9.158;2022-09-04T08:19:10;4.73;;;4.33;;
2211;SDS011;48849;48.758;9.158;2022-09-04T08:21:52;4.53;;;4.10;;
2211;SDS011;48849;48.758;9.158;2022-09-04T08:24:25;4.10;;;3.80;;
2211;SDS011;48849;48.758;9.158;2022-09-04T08:27:08;4.10;;;3.70;;
2211;SDS011;48849;48.758;9.158;2022-09-04T08:29:46;4.33;;;4.03;;
2211;SDS011;48849;48.758;9.158;2022-09-04T08:32:40;4.77;;;4.13;;
2211;SDS011;48849;48.758;9.158;2022-09-04T08:35:30;5.87;;;5.33;;
2211;SDS011;48849;48.758;9.158;2022-09-04T08:38:03;5.37;;;4.87;;
2211;SDS011;48849;48.758;9.158;2022-09-04T08:40:48;4.87;;;4.37;;
2211;SDS011;48849;48.758;9.158;2022-09-04T08:46:59;3.67;;;3.40;;
2211;SDS011;48849;48.758;9.158;2022-09-04T08:53:09;4.17;;;3.77;;
2211;SDS011;48849;48.758;9.158;2022-09-04T08:56:06;3.80;;;3.50;;
2211;SDS011;48849;48.758;9.158;2022-09-04T09:01:57;3.73;;;3.43;;
2211;SDS011;48849;48.758;9.158;2022-09-04T09:07:51;3.47;;;3.17;;
2211;SDS011;48849;48.758;9.158;2022-09-04T09:13:58;3.50;;;2.73;;
2211;SDS011;48849;48.758;9.158;2022-09-04T09:16:44;3.57;;;3.07;;
2211;SDS011;48849;48.758;9.158;2022-09-04T09:19:29;3.63;;;3.33;;
2211;SDS011;48849;48.758;9.158;2022-09-04T09:22:09;4.07;;;3.67;;
2211;SDS011;48849;48.758;9.158;2022-09-04T09:27:55;4.30;;;3.90;;
2211;SDS011;48849;48.758;9.158;2022-09-04T09:34:00;4.50;;;3.70;;
2211;SDS011;48849;48.758;9.158;2022-09-04T09:37:05;4.10;;;3.77;;
2211;SDS011;48849;48.758;9.158;2022-09-04T09:40:19;3.40;;;3.10;;
2211;SDS011;48849;48.758;9.158;2022-09-04T09:43:15;6.97;;;3.57;;
2211;SDS011;48849;48.758;9.158;2022-09-04T09:48:55;3.90;;;2.97;;
2211;SDS011;48849;48.758;9.158;2022-09-04T09:57:49;3.93;;;2.87;;
2211;SDS011;48849;48.758;9.158;2022-09-04T10:00:39;2.90;;;2.70;;
2211;SDS011;48849;48.758;9.158;2022-09-04T10:03:37;6.70;;;3.03;;
2211;SDS011;48849;48.758;9.158;2022-09-04T10:09:49;5.33;;;3.47;;
2211;SDS011;48849;48.758;9.158;2022-09-04T10:13:02;4.40;;;3.10;;
2211;SDS011;48849;48.758;9.158;2022-09-04T10:15:50;3.10;;;2.53;;
2211;SDS011;48849;48.758;9.158;2022-09-04T10:18:52;3.83;;;2.20;;
2211;SDS011;48849;48.758;9.158;2022-09-04T10:22:00;2.90;;;2.50;;
2211;SDS011;48849;48.758;9.158;2022-09-04T10:24:47;2.60;;;2.40;;
2211;SDS011;48849;48.758;9.158;2022-09-04T10:30:35;3.23;;;2.80;;
2211;SDS011;48849;48.758;9.158;2022-09-04T10:33:25;2.93;;;2.70;;
2211;SDS011;48849;48.758;9.158;2022-09-04T10:36:12;3.40;;;3.10;;
2211;SDS011;48849;48.758;9.158;2022-09-04T10:38:53;2.73;;;2.53;;
2211;SDS011;48849;48.758;9.158;2022-09-04T10:41:53;2.50;;;2.33;;
2211;SDS011;48849;48.758;9.158;2022-09-04T10:44:49;9.97;;;2.83;;
2211;SDS011;48849;48.758;9.158;2022-09-04T10:47:29;39.50;;;5.40;;
2211;SDS011;48849;48.758;9.158;2022-09-04T10:50:34;5.40;;;2.93;;
2211;SDS011;48849;48.758;9.158;2022-09-04T10:53:38;2.83;;;2.60;;
2211;SDS011;48849;48.758;9.158;2022-09-04T10:56:18;3.43;;;2.60;;
2211;SDS011;48849;48.758;9.158;2022-09-04T10:59:00;2.93;;;2.63;;
2211;SDS011;48849;48.758;9.158;2022-09-04T11:02:00;2.90;;;2.70;;
2211;SDS011;48849;48.758;9.158;2022-09-04T11:04:46;4.73;;;2.50;;
2211;SDS011;48849;48.758;9.158;2022-09-04T11:07:37;2.28;;;2.00;;
2211;SDS011;48849;48.758;9.158;2022-09-04T11:10:31;4.03;;;2.63;;
2211;SDS011;48849;48.758;9.158;2022-09-04T11:16:27;2.93;;;2.50;;
2211;SDS011;48849;48.758;9.158;2022-09-04T11:19:25;2.80;;;2.60;;
2211;SDS011;48849;48.758;9.158;2022-09-04T11:22:21;3.07;;;2.87;;
2211;SDS011;48849;48.758;9.158;2022-09-04T11:25:33;5.37;;;2.77;;
2211;SDS011;48849;48.758;9.158;2022-09-04T11:28:40;2.93;;;2.73;;
2211;SDS011;48849;48.758;9.158;2022-09-04T11:31:30;3.10;;;2.37;;
2211;SDS011;48849;48.758;9.158;2022-09-04T11:34:19;2.93;;;2.37;;
2211;SDS011;48849;48.758;9.158;2022-09-04T11:43:44;3.70;;;2.43;;
2211;SDS011;48849;48.758;9.158;2022-09-04T11:46:38;2.60;;;2.13;;
2211;SDS011;48849;48.758;9.158;2022-09-04T11:52:23;2.90;;;2.60;;
2211;SDS011;48849;48.758;9.158;2022-09-04T11:57:55;2.83;;;2.60;;
2211;SDS011;48849;48.758;9.158;2022-09-04T12:00:48;2.73;;;2.53;;
2211;SDS011;48849;48.758;9.158;2022-09-04T12:03:47;3.00;;;2.70;;
2211;SDS011;48849;48.758;9.158;2022-09-04T12:06:50;4.10;;;3.23;;
2211;SDS011;48849;48.758;9.158;2022-09-04T12:09:31;3.10;;;2.80;;
2211;SDS011;48849;48.758;9.158;2022-09-04T12:15:26;4.73;;;3.10;;
2211;SDS011;48849;48.758;9.158;2022-09-04T12:18:15;2.70;;;2.50;;
2211;SDS011;48849;48.758;9.158;2022-09-04T12:21:03;2.97;;;2.77;;
2211;SDS011;48849;48.758;9.158;2022-09-04T12:23:57;2.87;;;2.67;;
2211;SDS011;48849;48.758;9.158;2022-09-04T12:29:51;3.87;;;2.50;;
2211;SDS011;48849;48.758;9.158;2022-09-04T12:32:52;3.53;;;2.97;;
2211;SDS011;48849;48.758;9.158;2022-09-04T12:39:05;2.93;;;2.73;;
2211;SDS011;48849;48.758;9.158;2022-09-04T12:41:57;4.37;;;2.80;;
2211;SDS011;48849;48.758;9.158;2022-09-04T12:44:39;2.80;;;2.60;;
2211;SDS011;48849;48.758;9.158;2022-09-04T12:47:19;2.70;;;2.50;;
2211;SDS011;48849;48.758;9.158;2022-09-04T12:52:56;2.97;;;2.70;;
2211;SDS011;48849;48.758;9.158;2022-09-04T12:55:51;3.03;;;2.13;;
2211;SDS011;48849;48.758;9.158;2022-09-04T12:58:28;3.10;;;2.33;;
2211;SDS011;48849;48.758;9.158;2022-09-04T13:01:12;2.67;;;2.33;;
2211;SDS011;48849;48.758;9.158;2022-09-04T13:03:47;3.03;;;1.70;;
2211;SDS011;48849;48.758;9.158;2022-09-04T13:06:28;2.50;;;2.13;;
2211;SDS011;48849;48.758;9.158;2022-09-04T13:09:05;2.70;;;2.50;;
2211;SDS011;48849;48.758;9.158;2022-09-04T13:11:42;2.10;;;1.93;;
2211;SDS011;48849;48.758;9.158;2022-09-04T13:14:25;10.00;;;8.97;;
2211;SDS011;48849;48.758;9.158;2022-09-04T13:17:05;16.80;;;14.90;;
2211;SDS011;48849;48.758;9.158;2022-09-04T13:19:38;8.03;;;7.30;;
2211;SDS011;48849;48.758;9.158;2022-09-04T13:22:15;4.17;;;3.77;;
2211;SDS011;48849;48.758;9.158;2022-09-04T13:24:54;4.27;;;3.20;;
2211;SDS011;48849;48.758;9.158;2022-09-04T13:27:38;3.27;;;2.97;;
2211;SDS011;48849;48.758;9.158;2022-09-04T13:30:15;5.30;;;4.63;;
2211;SDS011;48849;48.758;9.158;2022-09-04T13:32:50;4.00;;;3.67;;
2211;SDS011;48849;48.758;9.158;2022-09-04T13:35:38;8.13;;;7.33;;
2211;SDS011;48849;48.758;9.158;2022-09-04T13:38:34;5.03;;;4.63;;
2211;SDS011;48849;48.758;9.158;2022-09-04T13:41:30;6.50;;;5.90;;
2211;SDS011;48849;48.758;9.158;2022-09-04T13:47:19;9.23;;;8.33;;
2211;SDS011;48849;48.758;9.158;2022-09-04T13:49:48;13.17;;;11.77;;
2211;SDS011;48849;48.758;9.158;2022-09-04T13:52:19;12.03;;;10.83;;
2211;SDS011;48849;48.758;9.158;2022-09-04T13:54:53;12.43;;;11.30;;
2211;SDS011;48849;48.758;9.158;2022-09-04T13:57:27;9.40;;;8.50;;
2211;SDS011;48849;48.758;9.158;2022-09-04T14:00:01;6.57;;;5.97;;
2211;SDS011;48849;48.758;9.158;2022-09-04T14:02:31;4.97;;;4.30;;
2211;SDS011;48849;48.758;9.158;2022-09-04T14:05:03;4.20;;;3.80;;
2211;SDS011;48849;48.758;9.158;2022-09-04T14:07:35;3.50;;;3.00;;
2211;SDS011;48849;48.758;9.158;2022-09-04T14:10:07;4.97;;;4.00;;
2211;SDS011;48849;48.758;9.158;2022-09-04T14:12:54;3.10;;;2.80;;
2211;SDS011;48849;48.758;9.158;2022-09-04T14:18:39;3.50;;;3.20;;
2211;SDS011;48849;48.758;9.158;2022-09-04T14:21:36;2.93;;;2.73;;
2211;SDS011;48849;48.758;9.158;2022-09-04T14:24:27;3.33;;;2.83;;
2211;SDS011;48849;48.758;9.158;2022-09-04T14:27:01;3.33;;;3.03;;
2211;SDS011;48849;48.758;9.158;2022-09-04T14:29:35;4.30;;;3.03;;
2211;SDS011;48849;48.758;9.158;2022-09-04T14:32:14;2.90;;;2.60;;
2211;SDS011;48849;48.758;9.158;2022-09-04T14:34:51;4.90;;;3.37;;
2211;SDS011;48849;48.758;9.158;2022-09-04T14:37:32;4.40;;;3.37;;
2211;SDS011;48849;48.758;9.158;2022-09-04T14:40:18;4.03;;;3.33;;
2211;SDS011;48849;48.758;9.158;2022-09-04T14:42:54;3.23;;;2.93;;
2211;SDS011;48849;48.758;9.158;2022-09-04T14:48:19;3.23;;;3.00;;
2211;SDS011;48849;48.758;9.158;2022-09-04T14:50:48;2.97;;;2.73;;
2211;SDS011;48849;48.758;9.158;2022-09-04T14:53:18;3.60;;;3.30;;
2211;SDS011;48849;48.758;9.158;2022-09-04T14:58:55;3.43;;;3.13;;
2211;SDS011;48849;48.758;9.158;2022-09-04T15:01:31;3.47;;;3.17;;
2211;SDS011;48849;48.758;9.158;2022-09-04T15:04:04;4.70;;;3.03;;
2211;SDS011;48849;48.758;9.158;2022-09-04T15:06:39;5.27;;;2.97;;
2211;SDS011;48849;48.758;9.158;2022-09-04T15:09:14;4.93;;;3.10;;
2211;SDS011;48849;48.758;9.158;2022-09-04T15:11:46;4.13;;;3.40;;
2211;SDS011;48849;48.758;9.158;2022-09-04T15:14:17;3.23;;;2.97;;
2211;SDS011;48849;48.758;9.158;2022-09-04T15:16:52;5.17;;;2.93;;
2211;SDS011;48849;48.758;9.158;2022-09-04T15:19:24;2.90;;;2.60;;
2211;SDS011;48849;48.758;9.158;2022-09-04T15:21:58;3.30;;;3.00;;
2211;SDS011;48849;48.758;9.158;2022-09-04T15:24:32;4.13;;;2.80;;
2211;SDS011;48849;48.758;9.158;2022-09-04T15:27:06;6.47;;;3.10;;
2211;SDS011;48849;48.758;9.158;2022-09-04T15:29:43;3.53;;;3.20;;
2211;SDS011;48849;48.758;9.158;2022-09-04T15:32:22;3.90;;;3.30;;
2211;SDS011;48849;48.758;9.158;2022-09-04T15:34:54;4.00;;;3.70;;
2211;SDS011;48849;48.758;9.158;2022-09-04T15:37:32;8.30;;;3.90;;
2211;SDS011;48849;48.758;9.158;2022-09-04T15:40:02;6.00;;;3.90;;
2211;SDS011;48849;48.758;9.158;2022-09-04T15:42:36;4.30;;;3.63;;
2211;SDS011;48849;48.758;9.158;2022-09-04T15:45:14;4.10;;;3.70;;
2211;SDS011;48849;48.758;9.158;2022-09-04T15:47:56;5.07;;;3.60;;
2211;SDS011;48849;48.758;9.158;2022-09-04T15:50:49;4.83;;;2.77;;
2211;SDS011;48849;48.758;9.158;2022-09-04T15:53:24;3.53;;;3.20;;
2211;SDS011;48849;48.758;9.158;2022-09-04T15:55:59;3.50;;;2.80;;
2211;SDS011;48849;48.758;9.158;2022-09-04T15:58:32;3.33;;;2.97;;
2211;SDS011;48849;48.758;9.158;2022-09-04T16:01:07;4.10;;;3.20;;
2211;SDS011;48849;48.758;9.158;2022-09-04T16:03:41;6.73;;;2.90;;
2211;SDS011;48849;48.758;9.158;2022-09-04T16:06:16;5.10;;;2.87;;
2211;SDS011;48849;48.758;9.158;2022-09-04T16:08:47;4.20;;;3.27;;
2211;SDS011;48849;48.758;9.158;2022-09-04T16:11:20;6.77;;;3.00;;
2211;SDS011;48849;48.758;9.158;2022-09-04T16:13:52;3.70;;;3.03;;
2211;SDS011;48849;48.758;9.158;2022-09-04T16:16:23;5.10;;;2.83;;
2211;SDS011;48849;48.758;9.158;2022-09-04T16:18:55;6.73;;;2.70;;
2211;SDS011;48849;48.758;9.158;2022-09-04T16:21:34;3.10;;;2.80;;
2211;SDS011;48849;48.758;9.158;2022-09-04T16:24:07;4.33;;;2.73;;
2211;SDS011;48849;48.758;9.158;2022-09-04T16:26:39;3.53;;;2.60;;
2211;SDS011;48849;48.758;9.158;2022-09-04T16:29:06;3.47;;;2.70;;
2211;SDS011;48849;48.758;9.158;2022-09-04T16:31:41;6.90;;;2.80;;
2211;SDS011;48849;48.758;9.158;2022-09-04T16:34:19;2.93;;;2.50;;
2211;SDS011;48849;48.758;9.158;2022-09-04T16:36:50;3.03;;;2.60;;
2211;SDS011;48849;48.758;9.158;2022-09-04T16:39:25;2.70;;;2.50;;
2211;SDS011;48849;48.758;9.158;2022-09-04T16:41:57;2.60;;;2.40;;
2211;SDS011;48849;48.758;9.158;2022-09-04T16:44:37;2.67;;;2.47;;
2211;SDS011;48849;48.758;9.158;2022-09-04T16:47:12;2.70;;;2.47;;
2211;SDS011;48849;48.758;9.158;2022-09-04T16:49:46;2.87;;;2.67;;
2211;SDS011;48849;48.758;9.158;2022-09-04T16:52:27;2.73;;;2.53;;
2211;SDS011;48849;48.758;9.158;2022-09-04T16:55:02;3.57;;;2.87;;
2211;SDS011;48849;48.758;9.158;2022-09-04T16:57:36;2.90;;;2.60;;
2211;SDS011;48849;48.758;9.158;2022-09-04T17:00:07;3.87;;;2.83;;
2211;SDS011;48849;48.758;9.158;2022-09-04T17:02:40;3.10;;;2.60;;
2211;SDS011;48849;48.758;9.158;2022-09-04T17:05:10;3.10;;;2.80;;
2211;SDS011;48849;48.758;9.158;2022-09-04T17:07:45;8.70;;;2.77;;
2211;SDS011;48849;48.758;9.158;2022-09-04T17:10:22;4.00;;;2.57;;
2211;SDS011;48849;48.758;9.158;2022-09-04T17:13:06;2.83;;;2.63;;
2211;SDS011;48849;48.758;9.158;2022-09-04T17:15:42;4.17;;;2.80;;
2211;SDS011;48849;48.758;9.158;2022-09-04T17:18:14;6.33;;;3.20;;
2211;SDS011;48849;48.758;9.158;2022-09-04T17:20:50;4.57;;;3.10;;
2211;SDS011;48849;48.758;9.158;2022-09-04T17:23:22;3.30;;;3.00;;
2211;SDS011;48849;48.758;9.158;2022-09-04T17:25:53;2.87;;;2.57;;
2211;SDS011;48849;48.758;9.158;2022-09-04T17:28:28;3.33;;;3.00;;
2211;SDS011;48849;48.758;9.158;2022-09-04T17:31:04;6.20;;;2.80;;
2211;SDS011;48849;48.758;9.158;2022-09-04T17:33:40;6.47;;;5.87;;
2211;SDS011;48849;48.758;9.158;2022-09-04T17:36:14;11.80;;;9.40;;
2211;SDS011;48849;48.758;9.158;2022-09-04T17:38:46;11.07;;;10.07;;
2211;SDS011;48849;48.758;9.158;2022-09-04T17:41:20;12.17;;;10.93;;
2211;SDS011;48849;48.758;9.158;2022-09-04T17:44:07;9.13;;;8.13;;
2211;SDS011;48849;48.758;9.158;2022-09-04T17:46:44;14.13;;;12.63;;
2211;SDS011;48849;48.758;9.158;2022-09-04T17:49:21;10.93;;;9.03;;
2211;SDS011;48849;48.758;9.158;2022-09-04T17:51:52;6.20;;;5.60;;
2211;SDS011;48849;48.758;9.158;2022-09-04T17:54:20;9.77;;;8.30;;
2211;SDS011;48849;48.758;9.158;2022-09-04T17:56:50;7.67;;;6.57;;
2211;SDS011;48849;48.758;9.158;2022-09-04T17:59:22;7.30;;;5.90;;
2211;SDS011;48849;48.758;9.158;2022-09-04T18:01:58;6.10;;;5.50;;
2211;SDS011;48849;48.758;9.158;2022-09-04T18:04:31;8.77;;;7.70;;
2211;SDS011;48849;48.758;9.158;2022-09-04T18:07:05;5.50;;;5.00;;
2211;SDS011;48849;48.758;9.158;2022-09-04T18:09:37;6.10;;;4.73;;